Time;durP1;ratioP1;P1;durP2;ratioP2;P2;SDS_P1;SDS_P2;PMS_P1;PMS_P2;Temp;Humidity;BMP_temperature;BMP_pressure;BME280_temperature;BME280_humidity;BME280_pressure;Samples;Min_cycle;Max_cycle;Signal;HPM_P1;HPM_P2
2022/07/11 00:02:20;;;;;;;6.03;2.50;;;20.10;75.40;;;;;;5043141;28;20128;-65
2022/07/11 00:04:46;;;;;;;5.47;2.67;;;20.10;75.50;;;;;;5041387;28;20034;-65
2022/07/11 00:07:13;;;;;;;5.93;2.80;;;19.90;76.20;;;;;;5075483;28;20237;-64
2022/07/11 00:09:39;;;;;;;4.65;2.58;;;19.80;76.30;;;;;;5057725;28;20025;-64
2022/07/11 00:12:05;;;;;;;3.08;2.58;;;19.70;76.60;;;;;;5042960;28;20296;-66
2022/07/11 00:14:32;;;;;;;4.22;2.80;;;19.60;76.30;;;;;;5045312;28;20032;-65
2022/07/11 00:16:58;;;;;;;5.20;2.85;;;19.60;77.00;;;;;;5046678;28;20021;-66
2022/07/11 00:19:23;;;;;;;3.92;2.55;;;19.60;77.20;;;;;;5078521;28;20029;-65
2022/07/11 00:21:50;;;;;;;6.32;2.88;;;19.60;77.30;;;;;;5046371;28;20089;-64
2022/07/11 00:24:19;;;;;;;7.28;3.08;;;19.60;77.00;;;;;;5078086;28;20283;-64
2022/07/11 00:26:46;;;;;;;7.60;2.33;;;19.60;77.50;;;;;;5077239;28;20040;-64
2022/07/11 00:29:11;;;;;;;4.53;2.53;;;19.60;78.10;;;;;;5078342;28;20212;-64
2022/07/11 00:31:37;;;;;;;4.75;2.75;;;19.50;78.70;;;;;;5046221;28;20033;-65
2022/07/11 00:34:03;;;;;;;13.63;2.63;;;19.50;79.10;;;;;;5046390;28;20021;-66
2022/07/11 00:36:29;;;;;;;7.38;3.00;;;19.50;79.30;;;;;;5045728;28;20031;-67
2022/07/11 00:38:55;;;;;;;5.15;2.35;;;19.40;79.70;;;;;;5046242;28;20216;-64
2022/07/11 00:41:21;;;;;;;5.72;2.58;;;19.30;80.00;;;;;;5045835;28;20025;-67
2022/07/11 00:43:53;;;;;;;7.53;2.40;;;19.30;80.20;;;;;;5044978;28;20296;-67
2022/07/11 00:46:19;;;;;;;4.00;2.50;;;19.30;80.40;;;;;;5045921;28;20018;-67
2022/07/11 00:48:45;;;;;;;3.20;2.20;;;19.20;80.70;;;;;;5045938;28;20164;-66
2022/07/11 00:51:12;;;;;;;3.95;2.22;;;19.10;81.00;;;;;;5043990;28;20028;-66
2022/07/11 00:53:39;;;;;;;3.42;2.17;;;19.10;81.50;;;;;;5061328;28;20036;-66
2022/07/11 00:56:06;;;;;;;2.38;1.98;;;19.00;82.00;;;;;;5044639;28;20029;-67
2022/07/11 00:58:32;;;;;;;3.35;1.98;;;18.90;82.20;;;;;;5045184;28;20181;-67
2022/07/11 01:00:58;;;;;;;2.92;1.98;;;18.90;82.40;;;;;;5045556;28;20056;-67
2022/07/11 01:03:24;;;;;;;3.58;2.10;;;18.80;82.90;;;;;;5045603;28;20087;-66
2022/07/11 01:05:49;;;;;;;6.03;2.40;;;18.80;82.80;;;;;;5045460;28;20355;-66
2022/07/11 01:08:15;;;;;;;6.40;2.30;;;18.80;83.10;;;;;;5044470;28;20268;-67
2022/07/11 01:10:41;;;;;;;3.13;2.33;;;18.70;83.50;;;;;;5045390;28;20034;-67
2022/07/11 01:13:07;;;;;;;4.47;2.40;;;18.70;83.90;;;;;;5045462;28;20025;-67
2022/07/11 01:15:35;;;;;;;4.10;2.10;;;18.70;84.10;;;;;;5045173;28;20030;-66
2022/07/11 01:18:02;;;;;;;4.75;2.20;;;18.60;84.30;;;;;;5044440;28;20032;-67
2022/07/11 01:20:28;;;;;;;2.78;2.25;;;18.60;84.80;;;;;;5045157;28;20036;-66
2022/07/11 01:22:56;;;;;;;6.20;2.47;;;18.50;85.00;;;;;;5027947;28;20308;-66
2022/07/11 01:25:30;;;;;;;4.10;2.17;;;18.60;85.10;;;;;;5044151;28;20060;-66
2022/07/11 01:27:57;;;;;;;4.65;2.00;;;18.50;85.90;;;;;;5044022;28;20036;-66
2022/07/11 01:30:23;;;;;;;3.20;2.30;;;18.50;85.20;;;;;;5044095;28;20022;-67
2022/07/11 01:32:52;;;;;;;3.75;2.20;;;18.50;85.30;;;;;;5044786;28;20026;-66
2022/07/11 01:35:18;;;;;;;3.20;2.38;;;18.50;85.80;;;;;;5043868;28;20020;-66
2022/07/11 01:37:43;;;;;;;2.78;2.13;;;18.40;85.80;;;;;;5043731;28;20036;-67
2022/07/11 01:40:10;;;;;;;3.92;2.28;;;18.40;85.50;;;;;;5045094;28;20021;-66
2022/07/11 01:42:35;;;;;;;4.18;2.50;;;18.40;85.40;;;;;;5045003;28;20075;-67
2022/07/11 01:45:01;;;;;;;4.35;2.45;;;18.40;85.20;;;;;;5044974;28;20044;-66
2022/07/11 01:47:27;;;;;;;4.18;2.35;;;18.40;85.30;;;;;;5043386;28;20025;-66
2022/07/11 01:49:52;;;;;;;2.67;2.05;;;18.30;85.60;;;;;;5026965;28;20032;-66
2022/07/11 01:52:18;;;;;;;4.22;1.98;;;18.20;85.70;;;;;;5043919;28;20020;-66
2022/07/11 01:54:43;;;;;;;5.00;2.20;;;18.20;86.00;;;;;;5044465;28;20335;-67
2022/07/11 01:57:09;;;;;;;4.15;2.28;;;18.10;86.10;;;;;;5044111;28;20040;-66
2022/07/11 01:59:36;;;;;;;2.80;2.15;;;18.10;86.20;;;;;;5044512;28;20053;-66
2022/07/11 02:02:02;;;;;;;2.72;2.40;;;18.10;87.70;;;;;;5076673;28;20029;-66
2022/07/11 02:04:27;;;;;;;3.88;1.90;;;18.10;88.90;;;;;;5076250;28;20025;-66
2022/07/11 02:06:53;;;;;;;3.17;2.40;;;18.10;88.50;;;;;;5044210;28;20120;-66
2022/07/11 02:09:19;;;;;;;2.38;1.92;;;18.00;88.60;;;;;;5043486;28;20208;-66
2022/07/11 02:11:45;;;;;;;2.10;1.90;;;18.00;88.60;;;;;;5044133;28;20025;-66
2022/07/11 02:14:10;;;;;;;4.90;2.25;;;18.00;88.70;;;;;;5076393;28;20029;-66
2022/07/11 02:16:36;;;;;;;4.53;2.47;;;18.00;88.60;;;;;;5043923;28;20021;-66
2022/07/11 02:19:02;;;;;;;3.10;2.05;;;18.00;88.50;;;;;;5044366;28;20018;-67
2022/07/11 02:21:27;;;;;;;2.90;2.40;;;18.00;88.70;;;;;;5043768;28;20022;-67
2022/07/11 02:23:53;;;;;;;2.40;2.10;;;18.00;88.60;;;;;;5044088;28;20021;-67
2022/07/11 02:26:18;;;;;;;4.15;2.33;;;18.00;88.40;;;;;;5043864;28;20076;-66
2022/07/11 02:28:44;;;;;;;2.25;2.03;;;17.90;88.70;;;;;;5043907;28;20325;-67
2022/07/11 02:31:10;;;;;;;4.80;2.50;;;17.90;89.00;;;;;;5043637;28;20028;-66
2022/07/11 02:33:36;;;;;;;4.95;2.30;;;17.80;89.20;;;;;;5044196;28;20021;-67
2022/07/11 02:36:02;;;;;;;3.25;2.20;;;17.80;88.90;;;;;;5026190;28;20064;-67
2022/07/11 02:38:27;;;;;;;4.68;2.28;;;17.70;89.40;;;;;;5043473;28;20025;-67
2022/07/11 02:40:53;;;;;;;4.45;2.20;;;17.50;90.00;;;;;;5042828;28;20036;-66
2022/07/11 02:43:19;;;;;;;3.20;2.33;;;17.30;90.40;;;;;;5043570;28;20080;-66
2022/07/11 02:45:44;;;;;;;3.47;2.45;;;17.30;90.50;;;;;;5042808;28;20025;-66
2022/07/11 02:48:10;;;;;;;5.80;2.33;;;17.30;90.50;;;;;;5042657;28;20083;-66
2022/07/11 02:50:36;;;;;;;4.80;2.25;;;17.30;90.40;;;;;;5043426;28;20075;-65
2022/07/11 02:53:02;;;;;;;3.53;2.47;;;17.40;90.30;;;;;;5042049;28;20025;-67
2022/07/11 02:55:27;;;;;;;4.65;2.65;;;17.50;90.20;;;;;;5043619;28;20029;-66
2022/07/11 02:57:53;;;;;;;3.35;2.13;;;17.50;90.10;;;;;;5043142;28;20029;-66
2022/07/11 03:00:19;;;;;;;4.38;2.22;;;17.60;90.10;;;;;;5043516;28;20049;-65
2022/07/11 03:02:46;;;;;;;5.05;2.47;;;17.50;90.10;;;;;;5075592;28;20029;-66
2022/07/11 03:05:12;;;;;;;4.22;2.20;;;17.40;90.50;;;;;;5058764;28;20044;-66
2022/07/11 03:07:38;;;;;;;5.43;2.05;;;17.40;90.80;;;;;;5075076;28;20018;-66
2022/07/11 03:10:04;;;;;;;4.60;2.22;;;17.40;90.90;;;;;;5043588;28;20055;-67
2022/07/11 03:12:30;;;;;;;2.50;1.85;;;17.30;91.10;;;;;;5075459;28;20034;-67
2022/07/11 03:14:56;;;;;;;6.03;2.22;;;17.30;91.20;;;;;;5043082;28;20033;-66
2022/07/11 03:17:22;;;;;;;3.70;2.25;;;17.20;91.20;;;;;;5043269;28;20024;-66
2022/07/11 03:19:48;;;;;;;4.03;2.25;;;17.10;91.40;;;;;;5043373;28;20075;-67
2022/07/11 03:22:15;;;;;;;5.75;2.22;;;17.00;91.50;;;;;;5075301;28;20033;-66
2022/07/11 03:24:41;;;;;;;3.47;2.88;;;16.90;91.80;;;;;;5043196;28;20080;-67
2022/07/11 03:27:08;;;;;;;3.67;2.20;;;16.80;92.00;;;;;;5042814;28;20022;-66
2022/07/11 03:29:33;;;;;;;3.97;2.55;;;16.80;92.30;;;;;;5042784;28;20316;-66
2022/07/11 03:31:59;;;;;;;3.03;2.33;;;16.90;92.10;;;;;;5043231;28;20032;-67
2022/07/11 03:34:25;;;;;;;6.55;2.40;;;16.90;91.90;;;;;;5042751;28;20243;-66
2022/07/11 03:36:51;;;;;;;3.33;2.20;;;16.70;92.00;;;;;;5043084;28;20021;-66
2022/07/11 03:39:17;;;;;;;2.55;2.33;;;16.70;92.00;;;;;;5043052;28;20026;-66
2022/07/11 03:41:43;;;;;;;4.43;2.58;;;16.70;92.00;;;;;;5043188;28;20308;-67
2022/07/11 03:44:09;;;;;;;4.18;2.42;;;16.60;92.10;;;;;;5042824;28;20029;-66
2022/07/11 03:46:35;;;;;;;5.45;2.47;;;16.50;92.40;;;;;;5042823;28;20018;-66
2022/07/11 03:49:01;;;;;;;3.40;2.30;;;16.40;92.70;;;;;;5045274;28;20212;-66
2022/07/11 03:51:27;;;;;;;3.55;2.05;;;16.40;92.70;;;;;;5047051;28;20026;-67
2022/07/11 03:53:52;;;;;;;6.57;2.58;;;16.40;92.70;;;;;;5044959;28;20022;-67
2022/07/11 03:56:22;;;;;;;5.85;2.47;;;16.50;92.60;;;;;;5047046;28;20320;-66
2022/07/11 03:58:49;;;;;;;3.45;2.38;;;16.60;92.30;;;;;;5044788;28;21514;-66
2022/07/11 04:01:15;;;;;;;5.18;2.20;;;16.60;92.30;;;;;;5046885;28;20030;-66
2022/07/11 04:03:41;;;;;;;7.03;2.40;;;16.70;92.20;;;;;;5045626;28;20055;-66
2022/07/11 04:06:07;;;;;;;2.83;2.15;;;16.70;92.10;;;;;;5046779;28;20052;-66
2022/07/11 04:08:33;;;;;;;2.47;2.10;;;16.70;92.10;;;;;;5045394;28;20251;-66
2022/07/11 04:10:58;;;;;;;6.07;2.53;;;16.70;92.10;;;;;;5046355;28;20022;-66
2022/07/11 04:13:24;;;;;;;3.92;2.47;;;16.70;92.50;;;;;;5045495;28;20025;-65
2022/07/11 04:15:50;;;;;;;3.28;2.05;;;16.60;92.40;;;;;;5046454;28;20308;-65
2022/07/11 04:18:16;;;;;;;3.67;2.63;;;16.60;92.30;;;;;;5046481;28;20021;-66
2022/07/11 04:20:41;;;;;;;3.90;2.47;;;16.60;92.20;;;;;;5046014;28;20317;-66
2022/07/11 04:23:07;;;;;;;2.75;2.30;;;16.60;92.10;;;;;;5046506;28;20064;-65
2022/07/11 04:25:34;;;;;;;3.50;1.92;;;16.60;92.30;;;;;;5046353;28;20037;-65
2022/07/11 04:28:00;;;;;;;3.90;2.35;;;16.50;92.30;;;;;;5046077;28;20017;-66
2022/07/11 04:30:26;;;;;;;3.97;2.17;;;16.60;92.20;;;;;;5046222;28;20255;-66
2022/07/11 04:32:52;;;;;;;4.05;2.33;;;16.70;92.20;;;;;;5046283;28;20047;-65
2022/07/11 04:35:17;;;;;;;3.22;2.10;;;16.70;92.20;;;;;;5045845;28;20017;-66
2022/07/11 04:37:44;;;;;;;4.00;2.30;;;16.80;92.20;;;;;;5046139;28;20120;-66
2022/07/11 04:40:10;;;;;;;4.18;2.05;;;16.80;92.10;;;;;;5045806;28;20414;-66
2022/07/11 04:42:37;;;;;;;3.70;2.20;;;17.00;91.80;;;;;;5046023;28;20036;-66
2022/07/11 04:45:03;;;;;;;4.38;1.98;;;17.10;91.50;;;;;;5044823;28;20033;-66
2022/07/11 04:47:28;;;;;;;2.47;2.10;;;17.30;91.20;;;;;;5044629;28;20051;-66
2022/07/11 04:49:54;;;;;;;3.67;2.20;;;17.40;90.90;;;;;;5045925;28;20021;-66
2022/07/11 04:52:20;;;;;;;3.42;2.10;;;17.60;90.60;;;;;;5044939;28;20047;-67
2022/07/11 04:54:45;;;;;;;3.58;1.90;;;17.80;90.30;;;;;;5045199;28;20030;-66
2022/07/11 04:57:11;;;;;;;2.25;2.08;;;18.00;90.00;;;;;;5045566;28;20029;-65
2022/07/11 04:59:38;;;;;;;4.60;1.90;;;18.20;89.40;;;;;;5044422;28;20049;-65
2022/07/11 05:02:04;;;;;;;2.50;1.73;;;18.40;88.50;;;;;;5045804;28;20069;-66
2022/07/11 05:04:30;;;;;;;6.63;2.00;;;18.60;87.90;;;;;;5045429;28;20201;-66
2022/07/11 05:06:55;;;;;;;4.45;1.85;;;18.60;87.90;;;;;;5046009;28;20076;-67
2022/07/11 05:09:21;;;;;;;4.38;2.00;;;18.80;87.30;;;;;;5045039;28;20037;-67
2022/07/11 05:11:46;;;;;;;4.50;2.00;;;19.10;86.70;;;;;;5078126;28;20033;-66
2022/07/11 05:14:12;;;;;;;3.47;2.20;;;19.30;85.80;;;;;;5045038;28;20323;-66
2022/07/11 05:16:38;;;;;;;3.53;2.00;;;19.50;85.30;;;;;;5045474;28;20033;-66
2022/07/11 05:19:04;;;;;;;3.35;2.03;;;19.50;84.20;;;;;;5045441;28;20025;-66
2022/07/11 05:21:29;;;;;;;5.72;2.15;;;19.60;84.00;;;;;;5045062;28;20026;-67
2022/07/11 05:23:55;;;;;;;5.97;2.42;;;19.80;83.40;;;;;;5045197;28;20025;-66
2022/07/11 05:26:20;;;;;;;3.83;1.88;;;19.80;82.90;;;;;;5045266;28;20216;-66
2022/07/11 05:28:46;;;;;;;7.47;2.03;;;19.70;83.00;;;;;;5044905;28;20025;-65
2022/07/11 05:31:12;;;;;;;3.88;2.30;;;19.50;83.30;;;;;;5077052;28;20029;-66
2022/07/11 05:33:37;;;;;;;4.93;2.00;;;19.40;83.80;;;;;;5060516;28;20304;-66
2022/07/11 05:36:03;;;;;;;3.35;2.50;;;19.30;84.20;;;;;;5044511;28;20268;-66
2022/07/11 05:38:29;;;;;;;4.32;1.92;;;19.20;84.30;;;;;;5045067;28;20150;-66
2022/07/11 05:40:54;;;;;;;3.35;2.20;;;19.00;85.00;;;;;;5044593;28;20057;-66
2022/07/11 05:43:20;;;;;;;3.05;2.30;;;18.90;85.70;;;;;;5044833;28;20032;-66
2022/07/11 05:45:46;;;;;;;5.40;2.13;;;18.80;86.00;;;;;;5044486;28;20032;-66
2022/07/11 05:48:11;;;;;;;4.82;2.60;;;18.80;86.50;;;;;;5044581;28;20312;-66
2022/07/11 05:50:37;;;;;;;7.72;2.58;;;18.90;86.50;;;;;;5043902;28;20025;-66
2022/07/11 05:53:03;;;;;;;7.88;2.60;;;18.90;86.60;;;;;;5044855;28;20029;-66
2022/07/11 05:55:30;;;;;;;3.60;2.33;;;19.00;86.60;;;;;;5043115;28;20025;-66
2022/07/11 05:57:55;;;;;;;3.45;2.55;;;19.00;86.80;;;;;;5043033;28;20017;-65
2022/07/11 06:00:22;;;;;;;101.32;11.10;;;19.10;86.60;;;;;;5044247;28;20108;-66
2022/07/11 06:02:48;;;;;;;16.15;3.10;;;19.20;86.30;;;;;;5044365;28;20028;-66
2022/07/11 06:05:14;;;;;;;7.25;2.83;;;19.30;86.20;;;;;;5043981;28;20032;-66
2022/07/11 06:10:27;;;;;;;13.82;3.20;;;19.30;86.30;;;;;;5042975;28;20021;-65
2022/07/11 06:12:53;;;;;;;8.10;2.60;;;19.30;86.70;;;;;;5044041;28;20017;-66
2022/07/11 06:15:19;;;;;;;12.43;3.65;;;19.40;86.10;;;;;;5044076;28;20338;-66
2022/07/11 06:17:45;;;;;;;11.93;3.35;;;19.40;86.50;;;;;;5044021;28;20033;-65
2022/07/11 06:20:11;;;;;;;9.55;2.88;;;19.40;86.10;;;;;;5043958;28;20116;-66
2022/07/11 06:22:37;;;;;;;17.45;4.53;;;19.50;86.20;;;;;;5044246;28;20044;-65
2022/07/11 06:25:03;;;;;;;98.72;11.15;;;19.60;86.20;;;;;;5042918;28;20025;-65
2022/07/11 06:27:29;;;;;;;38.63;5.82;;;19.70;86.00;;;;;;5043542;28;20041;-67
2022/07/11 06:29:54;;;;;;;35.60;5.65;;;19.80;85.70;;;;;;5044153;28;20014;-66
2022/07/11 06:32:20;;;;;;;20.75;3.92;;;19.80;85.70;;;;;;5042671;28;20025;-65
2022/07/11 06:34:46;;;;;;;17.52;3.78;;;19.90;85.40;;;;;;5043648;28;20016;-65
2022/07/11 06:37:12;;;;;;;15.40;3.50;;;19.90;85.40;;;;;;5043442;28;20030;-66
2022/07/11 06:39:37;;;;;;;12.95;2.80;;;20.00;85.00;;;;;;5045898;28;20031;-65
2022/07/11 06:42:03;;;;;;;18.80;4.63;;;20.10;85.10;;;;;;5078977;28;20028;-65
2022/07/11 06:44:29;;;;;;;20.35;3.72;;;20.10;85.70;;;;;;5079287;28;20027;-65
2022/07/11 06:46:55;;;;;;;28.30;4.00;;;20.20;85.80;;;;;;5063695;28;20208;-65
2022/07/11 06:49:21;;;;;;;30.45;4.30;;;20.30;85.50;;;;;;5063496;28;20084;-65
2022/07/11 06:51:47;;;;;;;25.67;4.50;;;20.40;85.80;;;;;;5054014;28;20308;-67
2022/07/11 06:54:12;;;;;;;25.83;3.47;;;20.40;85.80;;;;;;5041641;28;20033;-68
2022/07/11 06:56:38;;;;;;;21.63;3.53;;;20.50;85.70;;;;;;5042060;28;20143;-68
2022/07/11 06:59:04;;;;;;;17.25;4.43;;;20.60;85.50;;;;;;5042801;28;20286;-68
2022/07/11 07:01:29;;;;;;;13.07;3.00;;;20.70;85.60;;;;;;5042234;28;20079;-67
2022/07/11 07:03:55;;;;;;;10.63;2.97;;;20.80;84.80;;;;;;5042599;28;20026;-68
2022/07/11 07:06:21;;;;;;;6.65;2.70;;;20.80;85.10;;;;;;5043354;28;20024;-68
2022/07/11 07:08:46;;;;;;;13.90;3.00;;;20.80;85.10;;;;;;5041925;28;20032;-67
2022/07/11 07:11:12;;;;;;;8.55;2.85;;;20.80;84.70;;;;;;5056565;28;20108;-67
2022/07/11 07:13:38;;;;;;;17.23;2.95;;;20.90;84.40;;;;;;5042629;28;20025;-66
2022/07/11 07:16:06;;;;;;;9.70;3.03;;;21.00;84.70;;;;;;5042441;28;20029;-68
2022/07/11 07:18:33;;;;;;;7.72;2.95;;;21.20;84.70;;;;;;5043177;28;20029;-67
2022/07/11 07:20:58;;;;;;;5.60;2.60;;;21.30;84.00;;;;;;5040549;28;20022;-66
2022/07/11 07:23:24;;;;;;;5.45;2.63;;;21.40;83.70;;;;;;5041772;28;20096;-66
2022/07/11 07:25:50;;;;;;;6.70;2.30;;;21.40;83.30;;;;;;5041964;28;20036;-67
2022/07/11 07:28:16;;;;;;;13.77;2.70;;;21.50;84.00;;;;;;5041967;28;20309;-65
2022/07/11 07:30:42;;;;;;;4.50;2.08;;;21.60;83.80;;;;;;5041501;28;20052;-67
2022/07/11 07:33:10;;;;;;;5.07;2.13;;;21.80;83.40;;;;;;5042069;28;20025;-66
2022/07/11 07:35:36;;;;;;;3.97;2.00;;;21.90;82.60;;;;;;5042111;28;20026;-68
2022/07/11 07:38:01;;;;;;;3.90;2.22;;;21.80;82.60;;;;;;5040966;28;20025;-67
2022/07/11 07:40:27;;;;;;;4.75;2.20;;;21.80;82.50;;;;;;5057498;28;20096;-66
2022/07/11 07:42:54;;;;;;;3.95;2.30;;;21.80;82.40;;;;;;5042562;28;20037;-66
2022/07/11 07:45:20;;;;;;;7.25;2.42;;;21.80;82.00;;;;;;5041998;28;20093;-67
2022/07/11 07:47:49;;;;;;;3.70;2.33;;;21.80;82.10;;;;;;5041780;28;20181;-66
2022/07/11 07:50:14;;;;;;;8.65;3.20;;;21.90;82.30;;;;;;5041710;28;20041;-66
2022/07/11 07:52:40;;;;;;;11.77;2.60;;;22.00;82.40;;;;;;5041983;28;20040;-67
2022/07/11 07:55:06;;;;;;;7.25;2.53;;;22.10;82.20;;;;;;5040646;28;20248;-67
2022/07/11 07:57:32;;;;;;;7.10;2.38;;;22.30;81.70;;;;;;5041301;28;20032;-69
2022/07/11 08:02:43;;;;;;;4.53;2.25;;;22.50;81.90;;;;;;5039063;28;20348;-68
2022/07/11 08:05:09;;;;;;;8.98;2.58;;;22.60;81.80;;;;;;5040075;28;20071;-67
2022/07/11 08:07:35;;;;;;;3.95;2.20;;;22.70;81.80;;;;;;5040164;28;20056;-67
2022/07/11 08:10:05;;;;;;;5.75;1.90;;;22.90;81.30;;;;;;5040995;28;20181;-68
2022/07/11 08:12:31;;;;;;;7.00;2.00;;;23.00;80.10;;;;;;5040370;28;20022;-67
2022/07/11 08:14:57;;;;;;;4.78;1.80;;;23.10;80.40;;;;;;5038377;28;20037;-68
2022/07/11 08:17:23;;;;;;;5.78;1.88;;;23.10;80.00;;;;;;5038288;28;20217;-68
2022/07/11 08:19:48;;;;;;;5.90;2.00;;;23.10;79.80;;;;;;5039609;28;20236;-69
2022/07/11 08:22:14;;;;;;;5.07;2.05;;;23.20;79.50;;;;;;5038817;28;20053;-68
2022/07/11 08:24:40;;;;;;;7.20;1.83;;;23.30;79.10;;;;;;5039179;28;20063;-68
2022/07/11 08:27:05;;;;;;;4.78;1.60;;;23.40;78.90;;;;;;5039035;28;20028;-68
2022/07/11 08:29:31;;;;;;;13.23;2.30;;;23.50;77.90;;;;;;5041320;28;20034;-66
2022/07/11 08:31:56;;;;;;;6.53;2.15;;;23.50;78.80;;;;;;5056929;28;20089;-67
2022/07/11 08:34:22;;;;;;;12.63;1.77;;;23.60;78.10;;;;;;5041113;28;20075;-66
2022/07/11 08:36:48;;;;;;;8.60;2.08;;;23.70;77.70;;;;;;5043517;28;20374;-66
2022/07/11 08:39:13;;;;;;;12.55;2.22;;;23.80;77.60;;;;;;5040702;28;20302;-66
2022/07/11 08:41:44;;;;;;;9.85;2.03;;;23.90;77.30;;;;;;5041426;28;20041;-66
2022/07/11 08:44:11;;;;;;;3.92;1.15;;;24.00;76.60;;;;;;5040735;28;20025;-69
2022/07/11 08:46:40;;;;;;;8.52;1.80;;;24.30;74.90;;;;;;5042992;28;20029;-67
2022/07/11 08:49:06;;;;;;;5.88;1.45;;;24.50;74.70;;;;;;5043640;28;20029;-67
2022/07/11 08:51:32;;;;;;;4.65;1.40;;;24.70;74.20;;;;;;5042156;28;20261;-68
2022/07/11 08:53:58;;;;;;;8.30;1.23;;;24.90;73.30;;;;;;5043630;28;20080;-68
2022/07/11 08:56:26;;;;;;;2.20;0.90;;;25.10;73.50;;;;;;5041654;28;20047;-68
2022/07/11 08:58:53;;;;;;;3.47;1.08;;;25.20;72.90;;;;;;5042007;28;20198;-67
2022/07/11 09:01:25;;;;;;;4.45;1.30;;;25.20;72.60;;;;;;5040564;28;20052;-68
2022/07/11 09:03:53;;;;;;;2.03;1.08;;;25.20;73.00;;;;;;5036016;28;20022;-68
2022/07/11 09:06:18;;;;;;;7.15;1.45;;;25.30;72.90;;;;;;5023548;28;20309;-68
2022/07/11 09:08:44;;;;;;;1.38;1.00;;;25.40;72.40;;;;;;5023257;28;20026;-68
2022/07/11 09:11:10;;;;;;;3.13;1.27;;;25.50;72.40;;;;;;5038162;28;20064;-68
2022/07/11 09:13:36;;;;;;;8.77;1.50;;;25.60;72.10;;;;;;5042304;28;20045;-68
2022/07/11 09:16:05;;;;;;;4.00;1.45;;;25.70;72.20;;;;;;5042893;28;20088;-68
2022/07/11 09:18:34;;;;;;;2.35;1.13;;;25.80;72.20;;;;;;5042650;28;20071;-70
2022/07/11 09:26:42;;;;;;;2.55;1.02;;;25.90;71.50;;;;;;5029122;28;20010;-70
2022/07/11 09:29:10;;;;;;;2.35;1.00;;;25.90;71.80;;;;;;5041699;28;20029;-68
2022/07/11 09:31:37;;;;;;;8.65;1.60;;;26.00;71.80;;;;;;5042283;28;20045;-67
2022/07/11 09:34:10;;;;;;;1.17;0.85;;;26.10;72.60;;;;;;5058427;28;20096;-68
2022/07/11 09:36:54;;;;;;;9.05;1.58;;;26.20;71.50;;;;;;5059159;28;20032;-70
2022/07/11 09:39:23;;;;;;;8.20;1.10;;;26.20;72.10;;;;;;5058225;28;20025;-69
2022/07/11 09:41:51;;;;;;;1.58;1.02;;;26.30;72.20;;;;;;5057437;28;20123;-68
2022/07/11 09:44:33;;;;;;;3.13;1.00;;;26.30;70.60;;;;;;5056945;28;20032;-68
2022/07/11 09:46:59;;;;;;;;;;;26.10;71.00;;;;;;5041743;28;20031;-70
2022/07/11 09:49:40;;;;;;;1.33;0.95;;;26.10;70.90;;;;;;5041405;28;19901;-66
2022/07/11 09:52:10;;;;;;;;;;;26.10;70.60;;;;;;5043367;28;20133;-68
2022/07/11 09:55:00;;;;;;;3.88;1.10;;;26.10;71.30;;;;;;5058273;28;19924;-69
2022/07/11 09:57:40;;;;;;;5.90;1.10;;;26.30;71.30;;;;;;5040804;28;20017;-68
2022/07/11 10:00:10;;;;;;;2.83;1.30;;;26.40;70.70;;;;;;5043924;28;20308;-67
2022/07/11 10:02:36;;;;;;;3.60;1.17;;;26.50;69.70;;;;;;5041236;28;20251;-67
2022/07/11 10:05:02;;;;;;;2.40;1.05;;;26.60;70.10;;;;;;5043768;28;20025;-68
2022/07/11 10:07:29;;;;;;;5.07;1.02;;;26.60;70.00;;;;;;5041406;28;20026;-67
2022/07/11 10:09:56;;;;;;;7.30;1.40;;;26.70;69.80;;;;;;5041680;28;20296;-69
2022/07/11 10:12:22;;;;;;;3.30;1.52;;;26.70;70.00;;;;;;5043504;28;20043;-67
2022/07/11 10:14:49;;;;;;;2.83;1.40;;;26.80;69.80;;;;;;5043442;28;20089;-70
2022/07/11 10:17:26;;;;;;;4.95;1.42;;;26.90;69.90;;;;;;5050146;28;20045;-66
2022/07/11 10:20:32;;;;;;;2.15;0.90;;;27.10;69.00;;;;;;5040479;28;20039;-70
2022/07/11 10:23:13;;;;;;;4.70;1.35;;;27.10;69.00;;;;;;5019544;28;20079;-69
2022/07/11 10:26:18;;;;;;;8.10;1.42;;;27.20;68.80;;;;;;5020868;28;20030;-67
2022/07/11 10:28:52;;;;;;;5.57;1.02;;;27.30;67.90;;;;;;5018809;28;20117;-68
2022/07/11 10:31:20;;;;;;;7.40;1.02;;;27.30;67.40;;;;;;5039702;28;20022;-69
2022/07/11 10:34:04;;;;;;;5.70;1.00;;;27.30;67.70;;;;;;5040176;28;20022;-69
2022/07/11 10:36:33;;;;;;;4.53;1.35;;;27.30;68.20;;;;;;5040717;28;20097;-69
2022/07/11 10:39:24;;;;;;;7.47;2.05;;;27.30;68.10;;;;;;5040066;28;20021;-67
2022/07/11 10:41:50;;;;;;;8.45;1.50;;;27.40;68.40;;;;;;5039837;28;20339;-68
2022/07/11 10:44:17;;;;;;;8.20;1.20;;;27.50;68.10;;;;;;5054810;28;20061;-69
2022/07/11 10:46:43;;;;;;;2.05;1.00;;;27.70;67.60;;;;;;5039487;28;20045;-69
2022/07/11 10:49:18;;;;;;;4.03;1.20;;;27.70;66.40;;;;;;5040447;28;20083;-68
2022/07/11 10:52:04;;;;;;;4.18;1.13;;;27.70;67.20;;;;;;5040097;28;20039;-70
2022/07/11 10:54:52;;;;;;;6.28;1.48;;;27.80;67.20;;;;;;5054658;28;20104;-68
2022/07/11 10:57:49;;;;;;;2.08;1.10;;;27.90;66.60;;;;;;5039446;28;20017;-67
2022/07/11 11:00:20;;;;;;;6.43;1.25;;;27.90;65.80;;;;;;5053679;28;20041;-69
2022/07/11 11:03:07;;;;;;;3.28;1.20;;;27.90;66.50;;;;;;5042079;28;20032;-68
2022/07/11 11:05:52;;;;;;;2.53;1.13;;;27.90;66.90;;;;;;5055079;28;20281;-69
2022/07/11 11:08:41;;;;;;;4.40;1.20;;;28.00;66.20;;;;;;5055964;28;20021;-68
2022/07/11 11:11:35;;;;;;;5.05;1.33;;;28.00;66.20;;;;;;5055321;28;20060;-67
2022/07/11 11:14:21;;;;;;;4.32;1.10;;;28.00;65.80;;;;;;5040991;28;20052;-67
2022/07/11 11:16:48;;;;;;;2.45;0.93;;;28.00;66.80;;;;;;5057235;28;20025;-69
2022/07/11 11:19:52;;;;;;;7.63;1.33;;;28.10;65.20;;;;;;5042691;28;20047;-68
2022/07/11 11:22:20;;;;;;;6.63;1.27;;;28.10;64.90;;;;;;5053059;28;20021;-68
2022/07/11 11:24:47;;;;;;;7.32;1.20;;;28.10;65.00;;;;;;5042759;28;20084;-66
2022/07/11 11:27:21;;;;;;;4.32;1.15;;;28.30;64.70;;;;;;5042296;28;20330;-68
2022/07/11 11:29:49;;;;;;;8.25;1.40;;;28.30;64.30;;;;;;5042561;28;20013;-68
2022/07/11 11:32:15;;;;;;;2.25;0.80;;;28.30;64.50;;;;;;5056641;28;20051;-68
2022/07/11 11:34:41;;;;;;;1.83;0.82;;;28.40;64.40;;;;;;5042078;28;20021;-68
2022/07/11 11:37:07;;;;;;;5.43;1.55;;;28.30;64.70;;;;;;5042320;28;20022;-66
2022/07/11 11:39:38;;;;;;;3.47;0.88;;;28.40;64.40;;;;;;5042751;28;20307;-67
2022/07/11 11:42:06;;;;;;;2.53;1.02;;;28.40;64.10;;;;;;5041627;28;20308;-67
2022/07/11 11:44:33;;;;;;;5.10;1.20;;;28.40;64.30;;;;;;5040231;28;20332;-67
2022/07/11 11:46:59;;;;;;;2.42;1.30;;;28.40;64.40;;;;;;5040084;28;20029;-66
2022/07/11 11:49:25;;;;;;;3.25;1.10;;;28.50;63.40;;;;;;5040641;28;20087;-68
2022/07/11 11:51:55;;;;;;;5.68;1.25;;;28.40;63.40;;;;;;5042266;28;20017;-67
2022/07/11 11:54:23;;;;;;;7.30;1.55;;;28.50;63.50;;;;;;5039760;28;20030;-67
2022/07/11 11:56:48;;;;;;;6.57;1.20;;;28.60;63.60;;;;;;5040003;28;20017;-68
2022/07/11 11:59:15;;;;;;;4.47;1.02;;;28.70;63.60;;;;;;5038766;28;20049;-68
2022/07/11 12:01:44;;;;;;;7.20;1.63;;;28.80;63.60;;;;;;5041104;28;20065;-68
2022/07/11 12:04:12;;;;;;;5.55;1.25;;;28.80;63.10;;;;;;5056764;28;20026;-68
2022/07/11 12:06:41;;;;;;;9.15;1.40;;;28.70;63.00;;;;;;5040766;28;20254;-69
2022/07/11 12:09:11;;;;;;;5.63;1.30;;;28.70;63.70;;;;;;5039317;28;20029;-67
2022/07/11 12:11:38;;;;;;;5.38;1.30;;;28.80;64.00;;;;;;5024453;28;20029;-67
2022/07/11 12:14:06;;;;;;;2.20;1.00;;;29.00;64.00;;;;;;5041453;28;20403;-67
2022/07/11 12:16:41;;;;;;;3.90;1.02;;;29.10;63.50;;;;;;5043584;28;20052;-68
2022/07/11 12:19:08;;;;;;;5.53;1.20;;;29.00;63.30;;;;;;5042007;28;20343;-69
2022/07/11 12:21:36;;;;;;;4.45;1.25;;;29.00;64.00;;;;;;5041982;28;20097;-69
2022/07/11 12:24:04;;;;;;;1.77;1.00;;;29.10;63.80;;;;;;5042750;28;20096;-70
2022/07/11 12:26:33;;;;;;;2.17;1.10;;;29.10;63.30;;;;;;5058212;28;20075;-69
2022/07/11 12:29:10;;;;;;;2.90;1.20;;;29.10;63.40;;;;;;5044154;28;20048;-68
2022/07/11 12:31:48;;;;;;;6.60;1.77;;;29.10;63.70;;;;;;5022229;28;20049;-67
2022/07/11 12:34:16;;;;;;;2.30;1.15;;;29.10;63.70;;;;;;5057626;28;20311;-66
2022/07/11 12:36:46;;;;;;;2.55;0.90;;;29.10;63.50;;;;;;5050314;28;20039;-69
2022/07/11 12:39:29;;;;;;;5.18;1.27;;;29.20;63.30;;;;;;5040421;28;20360;-68
2022/07/11 12:41:57;;;;;;;6.28;1.15;;;29.30;63.40;;;;;;5043201;28;20061;-69
2022/07/11 12:47:12;;;;;;;3.63;1.10;;;29.50;62.90;;;;;;5043168;28;20029;-68
2022/07/11 12:49:40;;;;;;;3.33;0.90;;;29.50;62.80;;;;;;5044738;28;20029;-68
2022/07/11 12:52:06;;;;;;;2.17;0.98;;;29.60;62.20;;;;;;5044971;28;20029;-68
2022/07/11 12:54:33;;;;;;;5.07;1.65;;;29.50;62.90;;;;;;5044744;28;20027;-68
2022/07/11 12:57:01;;;;;;;4.55;1.15;;;29.70;62.70;;;;;;5043260;28;20337;-68
2022/07/11 12:59:31;;;;;;;3.55;0.90;;;30.00;62.20;;;;;;5074638;28;20076;-68
2022/07/11 13:02:13;;;;;;;2.72;1.15;;;30.00;61.80;;;;;;5043250;28;20041;-67
2022/07/11 13:04:45;;;;;;;5.30;1.10;;;30.10;61.50;;;;;;5075275;28;20025;-67